TimeHST,TemperatureF,Dew PointF,Humidity,Sea Level PressureIn,VisibilityMPH,Wind Direction,Wind SpeedMPH,Gust SpeedMPH,PrecipitationIn,Events,Conditions,WindDirDegrees,DateUTC
12:53 AM,66.0,62.1,87,29.98,10.0,SW,3.5,-,N/A,,Scattered Clouds,220,2014-01-17 10:53:00
1:53 AM,63.0,62.1,97,29.98,10.0,Calm,Calm,-,N/A,,Partly Cloudy,0,2014-01-17 11:53:00
2:53 AM,64.9,62.1,90,29.98,10.0,WSW,4.6,-,N/A,,Partly Cloudy,240,2014-01-17 12:53:00
3:53 AM,66.0,62.1,87,29.98,10.0,SW,4.6,-,N/A,,Scattered Clouds,230,2014-01-17 13:53:00
4:53 AM,64.9,62.1,90,29.98,10.0,SW,6.9,-,N/A,,Scattered Clouds,230,2014-01-17 14:53:00
5:53 AM,64.9,62.1,90,29.99,10.0,SW,6.9,-,N/A,,Partly Cloudy,230,2014-01-17 15:53:00
6:53 AM,64.9,57.9,78,30.00,10.0,SW,8.1,-,N/A,,Scattered Clouds,230,2014-01-17 16:53:00
7:53 AM,66.9,57.9,73,30.01,10.0,SW,9.2,-,N/A,,Partly Cloudy,230,2014-01-17 17:53:00
8:53 AM,73.0,62.1,68,30.03,10.0,SSW,4.6,-,N/A,,Clear,210,2014-01-17 18:53:00
9:53 AM,78.1,64.9,64,30.03,10.0,SE,5.8,-,N/A,,Clear,140,2014-01-17 19:53:00
10:53 AM,80.1,66.0,62,30.02,10.0,Variable,3.5,-,N/A,,Partly Cloudy,0,2014-01-17 20:53:00
11:53 AM,81.0,66.9,62,30.00,10.0,East,6.9,-,N/A,,Partly Cloudy,90,2014-01-17 21:53:00
12:53 PM,81.0,66.9,62,29.97,10.0,East,10.4,-,N/A,,Partly Cloudy,80,2014-01-17 22:53:00
1:53 PM,81.0,68.0,65,29.96,10.0,East,10.4,-,N/A,,Partly Cloudy,90,2014-01-17 23:53:00
2:53 PM,81.0,66.0,60,29.94,10.0,ESE,6.9,-,N/A,,Partly Cloudy,120,2014-01-18 00:53:00
3:53 PM,79.0,68.0,69,29.96,10.0,East,10.4,-,N/A,,Partly Cloudy,100,2014-01-18 01:53:00
4:53 PM,77.0,68.0,74,29.98,10.0,East,8.1,-,N/A,,Clear,90,2014-01-18 02:53:00
5:53 PM,75.0,68.0,79,29.99,10.0,NNE,3.5,-,N/A,,Clear,20,2014-01-18 03:53:00
6:53 PM,73.9,69.1,85,30.01,10.0,Calm,Calm,-,N/A,,Overcast,0,2014-01-18 04:53:00
7:53 PM,72.0,69.1,91,30.03,10.0,Calm,Calm,-,N/A,,Scattered Clouds,0,2014-01-18 05:53:00
8:05 PM,72.0,69.1,91,30.04,10.0,Calm,Calm,-,N/A,,Mostly Cloudy,0,2014-01-18 06:05:00
8:27 PM,72.0,69.1,91,30.04,10.0,Calm,Calm,-,N/A,,Mostly Cloudy,0,2014-01-18 06:27:00
8:53 PM,71.1,69.1,93,30.04,10.0,Calm,Calm,-,N/A,,Mostly Cloudy,0,2014-01-18 06:53:00
9:53 PM,70.0,68.0,93,30.04,10.0,Calm,Calm,-,N/A,,Scattered Clouds,0,2014-01-18 07:53:00
10:53 PM,68.0,68.0,100,30.04,10.0,Calm,Calm,-,N/A,,Scattered Clouds,0,2014-01-18 08:53:00
11:05 PM,69.1,69.1,100,30.04,10.0,SSW,3.5,-,N/A,,Mostly Cloudy,210,2014-01-18 09:05:00
11:51 PM,69.8,68.0,94,30.03,10.0,SW,3.5,-,N/A,,Mostly Cloudy,220,2014-01-18 09:51:00
11:53 PM,69.1,68.0,96,30.02,10.0,SW,3.5,-,N/A,,Mostly Cloudy,220,2014-01-18 09:53:00